Time;durP1;ratioP1;P1;durP2;ratioP2;P2;SDS_P1;SDS_P2;PMS_P1;PMS_P2;Temp;Humidity;BMP_temperature;BMP_pressure;BME280_temperature;BME280_humidity;BME280_pressure;Samples;Min_cycle;Max_cycle;Signal;HPM_P1;HPM_P2
2023/06/22 00:00:58;;;;;;;13.50;8.52;;;19.30;99.90;;;;;;5043281;28;20462;-85
2023/06/22 00:03:25;;;;;;;10.75;8.27;;;19.20;99.90;;;;;;5028475;28;20022;-85
2023/06/22 00:05:51;;;;;;;9.65;8.65;;;19.20;99.90;;;;;;5031526;28;20040;-85
2023/06/22 00:08:18;;;;;;;8.40;7.53;;;19.10;99.90;;;;;;5033953;28;20025;-85
2023/06/22 00:10:45;;;;;;;9.30;7.50;;;19.10;99.90;;;;;;5040336;28;20037;-85
2023/06/22 00:13:11;;;;;;;7.72;6.93;;;19.10;99.90;;;;;;5043287;28;20470;-85
2023/06/22 00:15:38;;;;;;;7.70;6.95;;;19.10;99.90;;;;;;5048436;28;20036;-85
2023/06/22 00:18:10;;;;;;;8.10;7.30;;;19.10;99.90;;;;;;5040649;28;20412;-85
2023/06/22 00:20:37;;;;;;;10.18;8.13;;;19.10;99.90;;;;;;5046444;28;20047;-85
2023/06/22 00:23:10;;;;;;;10.77;7.47;;;19.10;99.90;;;;;;5041643;28;20104;-85
2023/06/22 00:25:39;;;;;;;9.63;8.43;;;19.10;99.90;;;;;;5035415;28;20033;-85
2023/06/22 00:28:08;;;;;;;11.20;9.30;;;19.00;99.90;;;;;;5039395;28;20041;-85
2023/06/22 00:30:34;;;;;;;10.32;8.50;;;19.00;99.90;;;;;;5045942;28;20029;-85
2023/06/22 00:33:00;;;;;;;13.55;8.63;;;19.00;99.90;;;;;;5047266;28;20117;-85
2023/06/22 00:35:28;;;;;;;11.23;8.70;;;19.00;99.90;;;;;;5042479;28;20533;-85
2023/06/22 00:38:00;;;;;;;13.38;9.38;;;18.90;99.90;;;;;;5037072;28;20474;-85
2023/06/22 00:40:29;;;;;;;11.63;9.25;;;18.90;99.90;;;;;;5044725;28;20393;-85
2023/06/22 00:42:55;;;;;;;13.82;9.10;;;18.90;99.90;;;;;;5048207;28;20032;-85
2023/06/22 00:45:22;;;;;;;10.77;9.23;;;18.80;99.90;;;;;;5054818;28;20063;-85
2023/06/22 00:47:50;;;;;;;16.17;9.32;;;18.70;99.90;;;;;;5039335;28;20026;-85
2023/06/22 00:50:21;;;;;;;11.75;9.38;;;18.70;99.90;;;;;;5047107;28;20763;-85
2023/06/22 00:53:10;;;;;;;9.40;8.45;;;18.70;99.90;;;;;;5052417;28;20047;-85
2023/06/22 00:55:39;;;;;;;12.35;9.32;;;18.70;99.90;;;;;;5046566;28;20063;-85
2023/06/22 00:58:10;;;;;;;11.73;8.80;;;18.60;99.90;;;;;;5043037;28;20424;-85
2023/06/22 01:00:35;;;;;;;9.85;8.77;;;18.60;99.90;;;;;;5053322;28;20523;-85
2023/06/22 01:03:02;;;;;;;9.15;8.07;;;18.60;99.90;;;;;;5046694;28;20120;-85
2023/06/22 01:05:30;;;;;;;9.43;8.45;;;18.70;99.90;;;;;;5039957;28;20040;-85
2023/06/22 01:08:27;;;;;;;8.82;7.85;;;18.70;99.90;;;;;;5052421;28;20108;-85
2023/06/22 01:11:09;;;;;;;8.55;7.65;;;18.70;99.90;;;;;;5041948;28;20087;-85
2023/06/22 01:14:14;;;;;;;7.90;7.10;;;18.80;99.90;;;;;;5048056;28;20040;-85
2023/06/22 01:16:45;;;;;;;25.23;9.23;;;18.90;99.90;;;;;;5041149;28;20039;-85
2023/06/22 01:19:35;;;;;;;10.05;7.95;;;18.80;99.90;;;;;;5046785;28;20049;-85
2023/06/22 01:22:01;;;;;;;9.57;8.57;;;18.80;99.90;;;;;;5044863;28;20563;-85
2023/06/22 01:24:35;;;;;;;10.82;8.23;;;18.80;99.90;;;;;;5045288;28;20033;-85
2023/06/22 01:27:09;;;;;;;12.60;8.90;;;18.70;99.90;;;;;;5018138;28;20021;-85
2023/06/22 01:29:37;;;;;;;12.02;7.93;;;18.70;99.90;;;;;;5041287;28;20060;-85
2023/06/22 01:32:05;;;;;;;14.27;8.65;;;18.70;99.90;;;;;;5033022;28;20559;-85
2023/06/22 01:34:32;;;;;;;9.30;7.97;;;18.60;99.90;;;;;;5018135;28;20108;-85
2023/06/22 01:36:59;;;;;;;10.85;8.35;;;18.60;99.90;;;;;;5042838;28;20056;-85
2023/06/22 01:39:26;;;;;;;13.15;9.98;;;18.60;99.90;;;;;;5043830;28;20432;-85
2023/06/22 01:41:53;;;;;;;12.00;9.07;;;18.60;99.90;;;;;;5044729;28;20044;-85
2023/06/22 01:44:21;;;;;;;14.55;9.32;;;18.50;99.90;;;;;;5042074;28;20037;-85
2023/06/22 01:46:50;;;;;;;12.07;10.05;;;18.50;99.90;;;;;;5039752;28;20438;-85
2023/06/22 01:49:15;;;;;;;12.05;8.93;;;18.40;99.90;;;;;;5044920;28;20036;-85
2023/06/22 01:51:41;;;;;;;10.55;8.57;;;18.40;99.90;;;;;;5041894;28;20025;-85
2023/06/22 01:54:08;;;;;;;12.38;9.45;;;18.40;99.90;;;;;;5039915;28;20036;-85
2023/06/22 01:56:33;;;;;;;8.57;7.78;;;18.40;99.90;;;;;;5043447;28;20478;-85
2023/06/22 01:59:18;;;;;;;8.18;7.38;;;18.40;99.90;;;;;;5041778;28;20031;-85
2023/06/22 02:01:50;;;;;;;14.38;8.38;;;18.40;99.90;;;;;;5045915;28;20445;-85
2023/06/22 02:04:24;;;;;;;14.93;10.02;;;18.40;99.90;;;;;;5038262;28;20029;-85
2023/06/22 02:06:54;;;;;;;10.23;8.32;;;18.40;99.90;;;;;;5051774;28;20025;-85
2023/06/22 02:09:22;;;;;;;9.95;7.75;;;18.40;99.90;;;;;;5050023;28;20112;-86
2023/06/22 02:11:48;;;;;;;9.65;8.73;;;18.40;99.90;;;;;;5034774;28;20032;-86
2023/06/22 02:14:18;;;;;;;11.77;9.00;;;18.40;99.90;;;;;;5043286;28;20035;-85
2023/06/22 02:16:43;;;;;;;10.27;9.13;;;18.40;99.90;;;;;;5057578;28;20024;-85
2023/06/22 02:19:09;;;;;;;11.93;9.02;;;18.40;99.90;;;;;;5047986;28;20055;-86
2023/06/22 02:21:35;;;;;;;10.68;8.25;;;18.40;99.90;;;;;;5060966;28;20072;-85
2023/06/22 02:24:00;;;;;;;10.70;9.13;;;18.40;99.90;;;;;;5059921;28;21649;-85
2023/06/22 02:26:27;;;;;;;13.18;8.45;;;18.30;99.90;;;;;;5053668;28;20127;-85
2023/06/22 02:28:53;;;;;;;20.13;10.48;;;18.30;99.90;;;;;;5058637;28;20419;-86
2023/06/22 02:31:19;;;;;;;11.07;9.52;;;18.30;99.90;;;;;;5051651;28;20031;-85
2023/06/22 02:33:45;;;;;;;10.20;8.80;;;18.30;99.90;;;;;;5050750;28;20111;-85
2023/06/22 02:36:12;;;;;;;14.68;9.60;;;18.20;99.90;;;;;;5050851;28;20107;-86
2023/06/22 02:38:48;;;;;;;10.23;8.77;;;18.20;99.90;;;;;;5054219;28;20402;-85
2023/06/22 02:41:17;;;;;;;9.70;8.70;;;18.20;99.90;;;;;;5034389;28;20032;-85
2023/06/22 02:43:46;;;;;;;15.20;10.60;;;18.20;99.90;;;;;;5052815;28;20053;-86
2023/06/22 02:46:13;;;;;;;13.63;10.73;;;18.20;99.90;;;;;;5055425;28;20033;-85
2023/06/22 02:48:42;;;;;;;10.65;9.60;;;18.10;99.90;;;;;;5058962;28;20025;-85
2023/06/22 02:51:14;;;;;;;9.70;8.38;;;18.10;99.90;;;;;;5049574;28;20032;-86
2023/06/22 02:53:44;;;;;;;12.90;9.77;;;18.10;99.90;;;;;;5061514;28;20033;-86
2023/06/22 02:56:17;;;;;;;12.05;9.00;;;18.10;99.90;;;;;;5061440;28;20029;-85
2023/06/22 02:58:43;;;;;;;11.40;9.77;;;18.10;99.90;;;;;;5047070;28;20036;-85
2023/06/22 03:01:09;;;;;;;11.95;10.40;;;18.20;99.90;;;;;;5053576;28;20381;-85
2023/06/22 03:03:35;;;;;;;12.80;9.85;;;18.10;99.90;;;;;;5056144;28;20639;-85
2023/06/22 03:06:01;;;;;;;10.45;9.18;;;18.20;99.90;;;;;;5060190;28;20029;-86
2023/06/22 03:08:26;;;;;;;13.40;9.73;;;18.20;99.90;;;;;;5059072;28;20119;-85
2023/06/22 03:10:52;;;;;;;12.55;9.75;;;18.20;99.90;;;;;;5058147;28;20039;-86
2023/06/22 03:13:17;;;;;;;12.93;9.98;;;18.20;99.90;;;;;;5065392;28;20021;-86
2023/06/22 03:15:43;;;;;;;13.07;10.20;;;18.20;99.90;;;;;;5048904;28;20123;-85
2023/06/22 03:18:08;;;;;;;14.43;10.20;;;18.20;99.90;;;;;;5063284;28;20028;-85
2023/06/22 03:20:34;;;;;;;12.75;10.13;;;18.20;99.90;;;;;;5058234;28;20465;-85
2023/06/22 03:23:00;;;;;;;12.63;10.07;;;18.20;99.90;;;;;;5050252;28;20599;-85
2023/06/22 03:25:25;;;;;;;10.55;9.52;;;18.20;99.90;;;;;;5047606;28;20037;-85
2023/06/22 03:27:51;;;;;;;12.60;9.77;;;18.20;99.90;;;;;;5053935;28;20461;-85
2023/06/22 03:30:17;;;;;;;10.70;9.60;;;18.30;99.90;;;;;;5062825;28;20370;-85
2023/06/22 03:32:43;;;;;;;11.50;10.25;;;18.30;99.90;;;;;;5050533;28;20070;-85
2023/06/22 03:35:13;;;;;;;13.88;9.98;;;18.30;99.90;;;;;;5046870;28;20056;-85
2023/06/22 03:37:38;;;;;;;10.38;9.32;;;18.30;99.90;;;;;;5030911;28;20539;-86
2023/06/22 03:40:05;;;;;;;14.13;10.20;;;18.30;99.90;;;;;;5060572;28;20265;-86
2023/06/22 03:42:30;;;;;;;9.18;8.27;;;18.30;99.90;;;;;;5056578;28;20041;-86
2023/06/22 03:44:56;;;;;;;8.80;8.00;;;18.40;99.90;;;;;;5058678;28;20091;-87
2023/06/22 03:47:22;;;;;;;9.38;8.45;;;18.40;99.90;;;;;;5052055;28;20063;-86
2023/06/22 03:49:48;;;;;;;9.85;8.82;;;18.50;99.90;;;;;;5062832;28;20096;-86
2023/06/22 03:52:13;;;;;;;9.18;8.27;;;18.50;99.90;;;;;;5046185;28;20116;-86
2023/06/22 03:54:39;;;;;;;9.38;8.02;;;18.50;99.90;;;;;;5058209;28;20035;-86
2023/06/22 03:57:05;;;;;;;10.48;8.63;;;18.60;99.90;;;;;;5058672;28;20031;-87
2023/06/22 03:59:30;;;;;;;13.20;9.95;;;18.60;99.90;;;;;;5048303;28;20029;-86
2023/06/22 04:01:56;;;;;;;10.43;9.25;;;18.60;99.90;;;;;;5053945;28;20444;-86
2023/06/22 04:04:21;;;;;;;18.27;10.98;;;18.60;99.90;;;;;;5051364;28;20025;-85
2023/06/22 04:06:47;;;;;;;11.13;9.50;;;18.60;99.90;;;;;;5046065;28;20025;-86
2023/06/22 04:09:14;;;;;;;11.20;10.10;;;18.60;99.90;;;;;;5049515;28;20032;-84
2023/06/22 04:11:39;;;;;;;12.63;11.35;;;18.60;99.90;;;;;;5054085;28;20108;-86
2023/06/22 04:14:05;;;;;;;11.80;9.25;;;18.60;99.90;;;;;;5054428;28;20111;-86
2023/06/22 04:16:30;;;;;;;10.43;9.43;;;18.60;99.90;;;;;;5054155;28;20031;-86
2023/06/22 04:18:56;;;;;;;11.55;9.27;;;18.70;99.90;;;;;;5049000;28;20056;-86
2023/06/22 04:21:21;;;;;;;10.82;8.52;;;18.70;99.90;;;;;;5048254;28;20067;-86
2023/06/22 04:23:48;;;;;;;12.27;10.25;;;18.70;99.90;;;;;;5056911;28;20025;-85
2023/06/22 04:26:14;;;;;;;10.38;9.38;;;18.70;99.90;;;;;;5058561;28;20066;-86
2023/06/22 04:28:40;;;;;;;11.32;9.27;;;18.80;99.90;;;;;;5046464;28;20060;-86
2023/06/22 04:31:06;;;;;;;12.18;8.63;;;18.80;99.90;;;;;;5053400;28;20037;-86
2023/06/22 04:33:31;;;;;;;8.82;7.93;;;18.80;99.90;;;;;;5058378;28;20127;-87
2023/06/22 04:36:00;;;;;;;9.32;8.40;;;18.90;99.90;;;;;;5053918;28;20025;-86
2023/06/22 04:38:26;;;;;;;9.02;8.13;;;18.90;99.90;;;;;;5054798;28;20540;-86
2023/06/22 04:40:53;;;;;;;9.18;8.13;;;18.90;99.90;;;;;;5054072;28;20474;-87
2023/06/22 04:43:19;;;;;;;10.70;8.88;;;18.90;99.90;;;;;;5029801;28;20086;-86
2023/06/22 04:45:44;;;;;;;10.70;9.60;;;19.00;99.90;;;;;;5056926;28;20037;-86
2023/06/22 04:48:15;;;;;;;11.20;8.77;;;19.10;99.90;;;;;;5049577;28;20078;-85
2023/06/22 04:50:42;;;;;;;11.00;9.90;;;19.00;99.90;;;;;;5051516;28;20546;-85
2023/06/22 04:53:09;;;;;;;12.85;9.68;;;19.00;99.90;;;;;;5042951;28;20037;-86
2023/06/22 04:55:37;;;;;;;9.80;8.80;;;19.10;99.90;;;;;;5039689;28;20127;-86
2023/06/22 04:58:04;;;;;;;12.77;9.57;;;19.10;99.90;;;;;;5056328;28;20353;-86
2023/06/22 05:00:30;;;;;;;10.93;9.77;;;19.20;99.90;;;;;;5056553;28;20024;-86
2023/06/22 05:02:57;;;;;;;14.02;10.07;;;19.20;99.90;;;;;;5063938;28;20032;-86
2023/06/22 05:05:23;;;;;;;11.48;10.15;;;19.20;99.90;;;;;;5064779;28;20044;-86
2023/06/22 05:07:52;;;;;;;9.63;8.73;;;19.20;99.90;;;;;;5068720;28;20028;-86
2023/06/22 05:10:19;;;;;;;14.27;10.88;;;19.30;99.90;;;;;;5062219;28;20465;-86
2023/06/22 05:12:48;;;;;;;11.05;9.48;;;19.30;99.90;;;;;;5062093;28;20322;-85
2023/06/22 05:15:14;;;;;;;10.90;8.82;;;19.30;99.90;;;;;;5058728;28;20033;-86
2023/06/22 05:17:42;;;;;;;10.18;9.15;;;19.40;99.90;;;;;;5060799;28;20043;-86
2023/06/22 05:20:12;;;;;;;24.08;13.23;;;19.40;99.90;;;;;;5057386;28;20132;-85
2023/06/22 05:22:38;;;;;;;14.77;11.85;;;19.50;99.90;;;;;;5054391;28;20059;-86
2023/06/22 05:25:08;;;;;;;14.38;10.77;;;19.50;99.90;;;;;;5054338;28;20104;-86
2023/06/22 05:27:33;;;;;;;12.98;9.52;;;19.60;99.90;;;;;;5051374;28;20037;-85
2023/06/22 05:29:59;;;;;;;10.27;9.25;;;19.60;99.90;;;;;;5052806;28;20075;-85
2023/06/22 05:32:24;;;;;;;11.35;9.25;;;19.60;99.90;;;;;;5044254;28;20037;-85
2023/06/22 05:34:50;;;;;;;13.55;10.63;;;19.60;99.90;;;;;;5044400;28;20496;-86
2023/06/22 05:37:18;;;;;;;15.65;10.10;;;19.60;99.90;;;;;;5028846;28;20029;-85
2023/06/22 05:39:44;;;;;;;11.02;9.35;;;19.70;99.90;;;;;;5038786;28;20021;-85
2023/06/22 05:42:18;;;;;;;9.68;8.73;;;19.70;99.90;;;;;;5042695;28;20048;-86
2023/06/22 05:44:44;;;;;;;13.87;10.97;;;19.70;99.90;;;;;;5031601;28;20025;-85
2023/06/22 05:47:09;;;;;;;12.23;10.57;;;19.70;99.90;;;;;;5026276;28;20109;-85
2023/06/22 05:49:35;;;;;;;13.02;10.45;;;19.80;99.90;;;;;;5046967;28;20371;-85
2023/06/22 05:52:00;;;;;;;13.25;9.25;;;19.80;99.90;;;;;;5031478;28;20021;-85
2023/06/22 05:54:28;;;;;;;15.00;9.80;;;19.80;99.90;;;;;;5040369;28;20030;-86
2023/06/22 05:56:53;;;;;;;11.35;9.70;;;19.80;99.90;;;;;;5036843;28;20063;-86
2023/06/22 05:59:19;;;;;;;15.85;10.93;;;19.80;99.90;;;;;;5029856;28;20045;-86
2023/06/22 06:01:49;;;;;;;12.50;10.73;;;19.80;99.90;;;;;;5044860;28;20082;-85
2023/06/22 06:04:18;;;;;;;12.77;9.65;;;19.90;99.90;;;;;;5036757;28;20560;-85
2023/06/22 06:06:44;;;;;;;15.68;10.82;;;19.80;99.90;;;;;;5043438;28;20034;-85
2023/06/22 06:09:11;;;;;;;13.25;9.73;;;19.90;99.90;;;;;;5061053;28;20489;-86
2023/06/22 06:11:37;;;;;;;14.32;11.25;;;19.90;99.90;;;;;;5043750;28;20037;-85
2023/06/22 06:14:02;;;;;;;16.42;11.77;;;20.00;99.90;;;;;;5030453;28;20043;-85
2023/06/22 06:16:28;;;;;;;11.45;10.25;;;20.00;99.90;;;;;;5054304;28;20389;-85
2023/06/22 06:18:55;;;;;;;15.18;10.38;;;20.00;99.90;;;;;;5039448;28;20095;-85
2023/06/22 06:21:21;;;;;;;16.05;10.63;;;20.00;99.90;;;;;;5044560;28;20068;-86
2023/06/22 06:23:47;;;;;;;12.30;11.10;;;20.00;99.90;;;;;;5040033;28;20025;-86
2023/06/22 06:26:12;;;;;;;14.77;11.93;;;20.10;99.90;;;;;;5041388;28;20488;-86
2023/06/22 06:28:41;;;;;;;12.02;10.75;;;20.10;99.90;;;;;;5047328;28;20031;-85
2023/06/22 06:31:08;;;;;;;14.93;11.45;;;20.10;99.90;;;;;;5050653;28;20039;-86
2023/06/22 06:33:34;;;;;;;12.05;10.82;;;20.10;99.90;;;;;;5025693;28;20037;-86
2023/06/22 06:36:02;;;;;;;13.95;11.68;;;20.10;99.90;;;;;;5044847;28;20025;-86
2023/06/22 06:38:28;;;;;;;13.70;10.85;;;20.10;99.90;;;;;;5046737;28;20022;-86
2023/06/22 06:40:53;;;;;;;13.77;11.70;;;20.10;99.90;;;;;;5050393;28;20037;-86
2023/06/22 06:43:19;;;;;;;14.13;10.90;;;20.10;99.90;;;;;;5044441;28;20481;-86
2023/06/22 06:45:44;;;;;;;16.25;11.93;;;20.10;99.90;;;;;;5038631;28;20040;-86
2023/06/22 06:48:10;;;;;;;21.48;14.30;;;20.20;99.90;;;;;;5046102;28;20025;-85
2023/06/22 06:50:35;;;;;;;16.80;12.25;;;20.20;99.90;;;;;;5032953;28;20116;-86
2023/06/22 06:53:01;;;;;;;13.63;12.23;;;20.20;99.90;;;;;;5041536;28;20029;-86
2023/06/22 06:55:28;;;;;;;13.63;11.68;;;20.20;99.90;;;;;;5041047;28;20116;-85
2023/06/22 06:57:54;;;;;;;12.85;11.40;;;20.30;99.90;;;;;;5039155;28;20029;-86
2023/06/22 07:00:22;;;;;;;14.65;11.88;;;20.30;99.90;;;;;;5036577;28;20508;-86
2023/06/22 07:02:48;;;;;;;20.35;13.15;;;20.30;99.90;;;;;;5055168;28;20033;-86
2023/06/22 07:05:14;;;;;;;21.33;14.35;;;20.30;99.90;;;;;;5050491;28;20038;-86
2023/06/22 07:07:41;;;;;;;17.02;14.02;;;20.30;99.90;;;;;;5042962;28;20450;-86
2023/06/22 07:10:07;;;;;;;15.00;12.95;;;20.30;99.90;;;;;;5028203;28;20112;-87
2023/06/22 07:12:33;;;;;;;19.42;14.38;;;20.40;99.90;;;;;;5033778;28;20033;-87
2023/06/22 07:15:09;;;;;;;17.15;14.45;;;20.50;99.90;;;;;;5035972;28;20029;-87
2023/06/22 07:17:41;;;;;;;18.02;14.25;;;20.50;99.90;;;;;;5045399;28;20067;-87
2023/06/22 07:20:11;;;;;;;16.50;13.75;;;20.50;99.90;;;;;;5059535;28;20561;-87
2023/06/22 07:22:39;;;;;;;16.58;13.02;;;20.60;99.90;;;;;;5050537;28;20041;-87
2023/06/22 07:25:09;;;;;;;14.20;11.75;;;20.60;99.90;;;;;;5045901;28;20519;-87
2023/06/22 07:27:39;;;;;;;19.42;13.45;;;20.70;99.90;;;;;;5056100;28;20025;-87
2023/06/22 07:30:06;;;;;;;23.60;16.67;;;20.70;99.90;;;;;;5056005;28;20036;-88
2023/06/22 07:32:32;;;;;;;26.08;16.67;;;20.70;99.90;;;;;;5057390;28;20230;-88
2023/06/22 07:34:58;;;;;;;24.98;14.52;;;20.70;99.90;;;;;;5058194;28;20024;-88
2023/06/22 07:37:27;;;;;;;15.40;13.05;;;20.80;99.90;;;;;;5056651;28;20087;-87
2023/06/22 07:39:57;;;;;;;25.88;14.73;;;20.80;99.90;;;;;;5055469;28;20381;-87
2023/06/22 07:42:25;;;;;;;20.17;14.50;;;20.80;99.90;;;;;;5054310;28;20029;-86
2023/06/22 07:44:51;;;;;;;33.85;19.35;;;20.80;99.90;;;;;;5057518;28;20075;-87
2023/06/22 07:47:25;;;;;;;42.22;17.00;;;20.80;99.90;;;;;;5040733;28;20033;-86
2023/06/22 07:49:51;;;;;;;27.67;16.33;;;20.90;99.90;;;;;;5040160;28;20044;-87
2023/06/22 07:52:24;;;;;;;20.85;14.40;;;20.90;99.90;;;;;;5058966;28;20112;-86
2023/06/22 07:54:50;;;;;;;26.98;17.25;;;20.90;99.90;;;;;;5053346;28;20036;-86
2023/06/22 07:57:15;;;;;;;27.92;17.15;;;20.90;99.90;;;;;;5050325;28;20104;-86
2023/06/22 07:59:41;;;;;;;24.52;16.77;;;21.00;99.90;;;;;;5054315;28;20390;-86
2023/06/22 08:02:08;;;;;;;29.95;18.50;;;21.00;99.90;;;;;;5054279;28;20152;-86
2023/06/22 08:04:34;;;;;;;38.85;22.90;;;21.00;99.90;;;;;;5053786;28;20021;-86
2023/06/22 08:07:00;;;;;;;29.13;19.58;;;21.00;99.90;;;;;;5054725;28;20115;-86
2023/06/22 08:09:29;;;;;;;27.05;17.17;;;21.10;99.90;;;;;;5051468;28;20469;-87
2023/06/22 08:11:56;;;;;;;24.00;16.50;;;21.10;99.90;;;;;;5056676;28;20101;-86
2023/06/22 08:14:23;;;;;;;17.77;14.70;;;21.20;99.90;;;;;;5054402;28;20068;-86
2023/06/22 08:16:49;;;;;;;21.40;16.05;;;21.20;99.90;;;;;;5049362;28;20033;-86
2023/06/22 08:19:21;;;;;;;23.85;16.60;;;21.20;99.90;;;;;;5019927;28;20064;-86
2023/06/22 08:21:46;;;;;;;16.65;14.73;;;21.30;99.90;;;;;;5034163;28;20486;-86
2023/06/22 08:24:12;;;;;;;27.85;18.10;;;21.30;99.90;;;;;;5021790;28;20091;-86
2023/06/22 08:26:38;;;;;;;27.73;18.27;;;21.40;99.90;;;;;;5044106;28;20429;-87
2023/06/22 08:29:04;;;;;;;32.38;22.00;;;21.50;99.90;;;;;;5051918;28;20068;-86
2023/06/22 08:31:33;;;;;;;21.65;18.60;;;21.60;99.90;;;;;;5050131;28;20033;-87
2023/06/22 08:33:58;;;;;;;20.00;17.25;;;21.70;99.90;;;;;;5039800;28;20496;-87
2023/06/22 08:36:24;;;;;;;27.35;20.02;;;21.80;99.90;;;;;;5041028;28;20025;-87
2023/06/22 08:38:51;;;;;;;28.08;16.67;;;21.80;99.90;;;;;;5043927;28;20081;-85
2023/06/22 08:41:17;;;;;;;20.67;17.25;;;21.90;99.90;;;;;;5043312;28;20068;-85
2023/06/22 08:43:44;;;;;;;25.75;20.15;;;21.90;99.90;;;;;;5037555;28;20072;-85
2023/06/22 08:46:10;;;;;;;30.40;21.88;;;22.10;99.90;;;;;;5047862;28;20481;-86
2023/06/22 08:48:39;;;;;;;34.35;23.13;;;22.20;99.90;;;;;;5026830;28;20057;-85
2023/06/22 08:51:04;;;;;;;22.55;18.58;;;22.30;99.90;;;;;;5043144;28;20056;-85
2023/06/22 08:53:30;;;;;;;20.45;16.83;;;22.40;99.90;;;;;;5046210;28;20029;-85
2023/06/22 08:55:55;;;;;;;26.88;18.85;;;22.40;99.90;;;;;;5047398;28;20041;-85
2023/06/22 08:58:27;;;;;;;25.88;17.60;;;22.40;99.90;;;;;;5053063;28;20025;-85
2023/06/22 09:00:53;;;;;;;25.73;18.23;;;22.40;99.90;;;;;;5041968;28;20034;-85
2023/06/22 09:03:26;;;;;;;20.95;15.98;;;22.50;99.90;;;;;;5045920;28;20037;-86
2023/06/22 09:05:52;;;;;;;22.75;17.45;;;22.50;99.90;;;;;;5036199;28;20037;-85
2023/06/22 09:08:24;;;;;;;24.85;17.52;;;22.50;99.90;;;;;;5066657;28;20025;-85
2023/06/22 09:10:49;;;;;;;21.17;16.60;;;22.50;99.90;;;;;;5033027;28;20374;-85
2023/06/22 09:13:15;;;;;;;30.45;17.85;;;22.60;99.90;;;;;;5038761;28;20032;-86
2023/06/22 09:15:41;;;;;;;23.95;17.02;;;22.50;99.90;;;;;;5037101;28;20037;-85
2023/06/22 09:18:06;;;;;;;25.25;16.90;;;22.60;99.90;;;;;;5048150;28;20612;-85
2023/06/22 09:20:32;;;;;;;18.65;16.23;;;22.60;99.90;;;;;;5042435;28;20482;-85
2023/06/22 09:22:58;;;;;;;25.08;17.50;;;22.70;99.90;;;;;;5049085;28;20037;-84
2023/06/22 09:25:24;;;;;;;21.98;14.77;;;22.90;99.90;;;;;;5048037;28;20037;-85
2023/06/22 09:27:49;;;;;;;18.23;14.52;;;23.00;99.90;;;;;;5050795;28;20136;-85
2023/06/22 09:30:15;;;;;;;21.70;14.73;;;23.20;99.90;;;;;;5047660;28;20033;-85
2023/06/22 09:32:40;;;;;;;20.15;13.85;;;23.30;99.90;;;;;;5055107;28;20044;-85
2023/06/22 09:35:08;;;;;;;21.45;14.65;;;23.40;99.90;;;;;;5046705;28;20105;-86
2023/06/22 09:37:34;;;;;;;19.63;14.18;;;23.50;99.90;;;;;;5047705;28;20120;-88
2023/06/22 09:43:02;;;;;;;24.10;17.75;;;23.70;99.90;;;;;;5037251;28;20052;-90
2023/06/22 09:45:31;;;;;;;22.55;14.95;;;23.80;99.90;;;;;;5039721;28;20017;-87
2023/06/22 09:47:56;;;;;;;21.88;15.13;;;23.90;99.90;;;;;;5039173;28;20048;-88
2023/06/22 09:50:22;;;;;;;29.25;19.42;;;23.90;99.90;;;;;;5039725;28;20025;-87
2023/06/22 09:52:50;;;;;;;28.65;17.55;;;23.90;99.90;;;;;;5039718;28;20048;-87
2023/06/22 09:55:16;;;;;;;21.52;16.15;;;23.90;99.90;;;;;;5039604;28;20020;-88
2023/06/22 09:57:42;;;;;;;23.95;17.75;;;23.90;99.90;;;;;;5036859;28;20039;-88
2023/06/22 10:00:11;;;;;;;24.33;16.50;;;23.90;99.90;;;;;;5036737;28;20033;-86
2023/06/22 10:02:36;;;;;;;19.95;14.60;;;23.90;99.90;;;;;;5033498;28;20401;-87
2023/06/22 10:05:02;;;;;;;27.13;18.08;;;24.00;99.90;;;;;;5036662;28;20034;-88
2023/06/22 10:07:28;;;;;;;23.70;16.70;;;24.00;99.90;;;;;;5037942;28;20018;-88
2023/06/22 10:09:53;;;;;;;29.73;18.27;;;24.10;99.90;;;;;;5038477;28;20492;-89
2023/06/22 10:12:19;;;;;;;22.50;16.05;;;24.10;99.90;;;;;;5024755;28;20017;-88
2023/06/22 10:14:44;;;;;;;18.42;15.07;;;24.20;99.90;;;;;;5047168;28;20025;-88
2023/06/22 10:17:10;;;;;;;17.50;14.88;;;24.20;99.90;;;;;;5047715;28;20032;-86
2023/06/22 10:19:37;;;;;;;18.00;14.27;;;24.20;99.90;;;;;;5059481;28;20076;-88
2023/06/22 10:22:03;;;;;;;26.95;17.40;;;24.30;99.90;;;;;;5054813;28;20565;-90
2023/06/22 10:24:29;;;;;;;25.90;16.45;;;24.40;99.90;;;;;;5047848;28;20136;-90
2023/06/22 10:26:55;;;;;;;18.55;15.80;;;24.40;99.90;;;;;;5048843;28;20131;-86
2023/06/22 10:29:20;;;;;;;18.45;14.50;;;24.50;99.90;;;;;;5060327;28;20032;-86
2023/06/22 10:31:46;;;;;;;23.27;14.25;;;24.50;99.90;;;;;;5058902;28;20025;-91
2023/06/22 10:34:11;;;;;;;22.33;14.10;;;24.50;99.90;;;;;;5046750;28;20441;-88
2023/06/22 10:36:38;;;;;;;23.25;14.60;;;24.60;99.90;;;;;;5052558;28;20060;-89
2023/06/22 10:39:06;;;;;;;18.58;12.38;;;24.80;99.90;;;;;;5055493;28;20024;-85
2023/06/22 10:41:32;;;;;;;25.92;13.98;;;24.80;99.90;;;;;;5049965;28;20125;-88
2023/06/22 10:43:58;;;;;;;18.23;11.63;;;24.80;99.90;;;;;;5054224;28;20123;-84
2023/06/22 10:46:27;;;;;;;18.75;11.45;;;24.80;99.90;;;;;;5055655;28;20020;-86
2023/06/22 10:48:58;;;;;;;19.73;13.45;;;24.80;99.90;;;;;;5064579;28;20025;-87
2023/06/22 10:51:31;;;;;;;18.00;12.93;;;24.70;99.90;;;;;;5058252;28;20032;-85
2023/06/22 10:53:57;;;;;;;14.95;12.65;;;24.70;99.90;;;;;;5064556;28;20056;-87
2023/06/22 10:56:22;;;;;;;14.40;12.38;;;24.70;99.90;;;;;;5044408;28;20407;-86
2023/06/22 10:58:49;;;;;;;14.77;12.75;;;24.70;99.90;;;;;;5056154;28;20025;-86
2023/06/22 11:01:15;;;;;;;14.77;12.02;;;24.70;99.90;;;;;;5058163;28;20040;-85
2023/06/22 11:03:40;;;;;;;15.15;12.02;;;24.60;99.90;;;;;;5061560;28;20037;-87
2023/06/22 11:06:06;;;;;;;15.93;12.35;;;24.60;99.90;;;;;;5050668;28;20038;-88
2023/06/22 11:08:32;;;;;;;15.95;12.52;;;24.70;99.90;;;;;;5034652;28;20421;-86
2023/06/22 11:10:57;;;;;;;12.65;11.23;;;24.80;99.90;;;;;;5054782;28;20032;-87
2023/06/22 11:13:24;;;;;;;13.77;10.23;;;24.90;99.90;;;;;;5051876;28;20032;-87
2023/06/22 11:15:50;;;;;;;15.32;11.82;;;25.10;99.90;;;;;;5052967;28;20029;-87
2023/06/22 11:18:16;;;;;;;24.80;11.90;;;25.20;99.90;;;;;;5052509;28;20057;-85
2023/06/22 11:20:42;;;;;;;13.82;11.35;;;25.20;99.90;;;;;;5051724;28;20037;-87
2023/06/22 11:23:07;;;;;;;18.48;11.45;;;25.30;99.90;;;;;;5043590;28;20474;-89
2023/06/22 11:25:38;;;;;;;17.35;10.60;;;25.30;99.90;;;;;;5048267;28;20021;-88
2023/06/22 11:28:12;;;;;;;24.48;10.15;;;25.30;99.90;;;;;;5046231;28;20032;-87
2023/06/22 11:30:39;;;;;;;13.98;10.32;;;25.40;99.90;;;;;;5040373;28;20044;-88
2023/06/22 11:33:04;;;;;;;13.38;10.52;;;25.40;99.90;;;;;;5044253;28;20033;-89
2023/06/22 11:35:30;;;;;;;10.63;9.32;;;25.50;99.90;;;;;;5064137;28;20057;-88
2023/06/22 11:37:56;;;;;;;12.30;9.82;;;25.50;99.90;;;;;;5053446;28;20097;-88
2023/06/22 11:40:24;;;;;;;14.25;10.68;;;25.70;99.90;;;;;;5049041;28;20036;-87
2023/06/22 11:42:50;;;;;;;13.02;11.15;;;25.80;99.90;;;;;;5053821;28;20528;-91
2023/06/22 11:45:17;;;;;;;15.57;11.55;;;25.80;99.90;;;;;;5054114;28;20028;-89
2023/06/22 11:47:43;;;;;;;15.57;10.70;;;25.80;99.90;;;;;;5055455;28;20063;-89
2023/06/22 11:50:08;;;;;;;35.45;11.82;;;25.80;99.90;;;;;;5054708;28;20465;-87
2023/06/22 11:52:35;;;;;;;26.38;11.48;;;25.70;99.90;;;;;;5059010;28;20070;-88
2023/06/22 11:55:03;;;;;;;34.28;10.70;;;25.70;99.90;;;;;;5042215;28;20413;-88
2023/06/22 11:57:36;;;;;;;14.30;11.05;;;25.60;99.90;;;;;;5058324;28;20040;-87
2023/06/22 12:00:15;;;;;;;17.15;11.65;;;25.60;99.90;;;;;;5055204;28;20040;-87
2023/06/22 12:02:41;;;;;;;15.95;10.82;;;25.60;99.90;;;;;;5054003;28;20059;-89
2023/06/22 12:05:07;;;;;;;16.77;10.43;;;25.60;99.90;;;;;;5045168;28;20029;-86
2023/06/22 12:07:33;;;;;;;12.82;11.05;;;25.60;99.90;;;;;;5057080;28;20051;-89
2023/06/22 12:09:59;;;;;;;14.35;10.82;;;25.60;99.90;;;;;;5060411;28;20497;-87
2023/06/22 12:12:24;;;;;;;13.65;10.45;;;25.60;99.90;;;;;;5051750;28;20533;-87
2023/06/22 12:14:50;;;;;;;12.10;10.27;;;25.70;99.90;;;;;;5050210;28;20039;-88
2023/06/22 12:17:15;;;;;;;13.77;10.15;;;25.80;99.90;;;;;;5056158;28;20029;-89
2023/06/22 12:19:41;;;;;;;14.10;10.85;;;25.80;99.90;;;;;;5015590;28;1018959;-87
2023/06/22 12:22:06;;;;;;;12.30;11.00;;;25.90;99.90;;;;;;5053368;28;20132;-88
2023/06/22 12:24:32;;;;;;;14.20;10.93;;;26.00;99.90;;;;;;5051287;28;20094;-87
2023/06/22 12:26:59;;;;;;;13.38;10.90;;;26.00;99.90;;;;;;5051831;28;20408;-86
2023/06/22 12:29:25;;;;;;;16.83;10.93;;;26.00;99.90;;;;;;5061184;28;20107;-86
2023/06/22 12:31:50;;;;;;;11.68;10.13;;;26.00;99.90;;;;;;5058636;28;20173;-87
2023/06/22 12:34:16;;;;;;;12.20;8.65;;;26.00;99.90;;;;;;5058298;28;20120;-87
2023/06/22 12:36:41;;;;;;;17.10;9.88;;;26.10;99.90;;;;;;5061064;28;20035;-89